Time;durP1;ratioP1;P1;durP2;ratioP2;P2;SDS_P1;SDS_P2;PMS_P1;PMS_P2;Temp;Humidity;BMP_temperature;BMP_pressure;BME280_temperature;BME280_humidity;BME280_pressure;Samples;Min_cycle;Max_cycle;Signal;HPM_P1;HPM_P2
2023/10/19 00:01:55;;;;;;;21.52;14.85;;;;;;;;;;5049478;28;20449;-62
2023/10/19 00:04:22;;;;;;;24.85;15.10;;;;;;;;;;5049502;28;20388;-62
2023/10/19 00:06:48;;;;;;;27.50;16.15;;;;;;;;;;5049684;28;20036;-62
2023/10/19 00:09:15;;;;;;;25.20;16.02;;;;;;;;;;5049520;28;20102;-62
2023/10/19 00:11:42;;;;;;;24.05;16.30;;;;;;;;;;5049745;28;20037;-62
2023/10/19 00:14:17;;;;;;;26.67;17.08;;;;;;;;;;5049599;28;20049;-62
2023/10/19 00:16:56;;;;;;;26.27;16.88;;;;;;;;;;5048623;28;20041;-62
2023/10/19 00:19:27;;;;;;;26.38;17.08;;;;;;;;;;5049424;28;20048;-62
2023/10/19 00:21:55;;;;;;;27.15;16.48;;;;;;;;;;5049618;28;20480;-62
2023/10/19 00:24:25;;;;;;;29.13;17.17;;;;;;;;;;5049018;28;20124;-62
2023/10/19 00:26:55;;;;;;;26.08;16.75;;;;;;;;;;5049362;28;20441;-62
2023/10/19 00:29:30;;;;;;;25.00;16.23;;;;;;;;;;5049396;28;20487;-62
2023/10/19 00:32:00;;;;;;;31.83;18.40;;;;;;;;;;5049179;28;20497;-62
2023/10/19 00:34:28;;;;;;;28.48;17.63;;;;;;;;;;5052661;28;20177;-62
2023/10/19 00:37:01;;;;;;;27.95;18.20;;;;;;;;;;5053299;28;20550;-62
2023/10/19 00:39:27;;;;;;;25.42;17.45;;;;;;;;;;5052883;28;20052;-62
2023/10/19 00:41:57;;;;;;;29.80;18.23;;;;;;;;;;5053278;28;20119;-62
2023/10/19 00:44:36;;;;;;;26.40;17.92;;;;;;;;;;5052779;28;20049;-62
2023/10/19 00:47:12;;;;;;;30.40;18.80;;;;;;;;;;5052614;28;20471;-62
2023/10/19 00:49:38;;;;;;;26.70;17.67;;;;;;;;;;5053351;28;20037;-62
2023/10/19 00:52:16;;;;;;;27.90;17.45;;;;;;;;;;5053166;28;20052;-62
2023/10/19 00:54:55;;;;;;;26.88;17.42;;;;;;;;;;5052231;28;20458;-62
2023/10/19 00:57:32;;;;;;;26.88;18.05;;;;;;;;;;5052803;28;20075;-62
2023/10/19 01:00:11;;;;;;;28.23;19.00;;;;;;;;;;5052766;28;20049;-62
2023/10/19 01:02:43;;;;;;;30.10;18.35;;;;;;;;;;5018062;28;20048;-62
2023/10/19 01:05:13;;;;;;;27.50;18.83;;;;;;;;;;5052761;28;20084;-62
2023/10/19 01:07:44;;;;;;;29.75;18.60;;;;;;;;;;5052729;28;20237;-62
2023/10/19 01:10:28;;;;;;;28.83;18.08;;;;;;;;;;5052416;28;20037;-62
2023/10/19 01:12:54;;;;;;;31.83;18.98;;;;;;;;;;5053073;28;20048;-62
2023/10/19 01:15:29;;;;;;;28.40;18.52;;;;;;;;;;5052505;28;20466;-62
2023/10/19 01:17:58;;;;;;;32.92;19.60;;;;;;;;;;5051776;28;20052;-62
2023/10/19 01:25:36;;;;;;;29.75;18.70;;;;;;;;;;5051828;28;20103;-62
2023/10/19 01:28:09;;;;;;;29.80;19.63;;;;;;;;;;5052458;28;20120;-62
2023/10/19 01:30:36;;;;;;;31.85;18.70;;;;;;;;;;5034132;28;20037;-62
2023/10/19 01:33:03;;;;;;;28.88;18.65;;;;;;;;;;5052145;28;20393;-62
2023/10/19 01:36:10;;;;;;;31.42;19.50;;;;;;;;;;5052189;28;20092;-62
2023/10/19 01:38:15;;;;;;;33.15;19.60;;;;;;;;;;5051328;28;20040;-62
2023/10/19 01:40:46;;;;;;;30.63;19.05;;;;;;;;;;5052306;28;20048;-62
2023/10/19 01:43:21;;;;;;;28.17;18.38;;;;;;;;;;5052229;28;20045;-62
2023/10/19 01:45:54;;;;;;;29.23;18.33;;;;;;;;;;5032890;28;20060;-62
2023/10/19 01:48:24;;;;;;;27.05;18.45;;;;;;;;;;5052307;28;20047;-62
2023/10/19 01:50:53;;;;;;;27.17;17.05;;;;;;;;;;5052025;28;20064;-62
2023/10/19 01:53:25;;;;;;;26.23;17.58;;;;;;;;;;5051344;28;20044;-62
2023/10/19 01:55:57;;;;;;;24.05;17.35;;;;;;;;;;5051854;28;20044;-62
2023/10/19 01:58:25;;;;;;;23.17;16.65;;;;;;;;;;5051856;28;20450;-62
2023/10/19 02:00:54;;;;;;;28.85;18.17;;;;;;;;;;5051374;28;20088;-62
2023/10/19 02:03:23;;;;;;;25.42;17.65;;;;;;;;;;5051792;28;20037;-62
2023/10/19 02:05:50;;;;;;;23.35;15.77;;;;;;;;;;5033538;28;20053;-62
2023/10/19 02:08:17;;;;;;;23.63;16.23;;;;;;;;;;5051529;28;20060;-62
2023/10/19 02:10:47;;;;;;;23.67;15.80;;;;;;;;;;5051711;28;20041;-62
2023/10/19 02:13:15;;;;;;;23.50;15.77;;;;;;;;;;5051785;28;20045;-62
2023/10/19 02:15:43;;;;;;;23.58;16.88;;;;;;;;;;5051159;28;20049;-62
2023/10/19 02:18:10;;;;;;;19.92;15.38;;;;;;;;;;5051452;28;20669;-62
2023/10/19 02:20:40;;;;;;;21.85;14.93;;;;;;;;;;5051464;28;20501;-62
2023/10/19 02:23:06;;;;;;;21.75;15.98;;;;;;;;;;5050894;28;20040;-62
2023/10/19 02:25:36;;;;;;;21.75;15.10;;;;;;;;;;5050827;28;20051;-62
2023/10/19 02:28:02;;;;;;;20.30;14.57;;;;;;;;;;5051170;28;20494;-62
2023/10/19 02:30:30;;;;;;;22.38;14.10;;;;;;;;;;5050948;28;20232;-62
2023/10/19 02:32:56;;;;;;;20.90;14.80;;;;;;;;;;5051066;28;20112;-62
2023/10/19 02:35:23;;;;;;;20.88;14.52;;;;;;;;;;5033150;28;20060;-62
2023/10/19 02:37:48;;;;;;;20.25;14.35;;;;;;;;;;5050751;28;20411;-62
2023/10/19 02:40:23;;;;;;;19.80;14.43;;;;;;;;;;5051200;28;20037;-62
2023/10/19 02:42:53;;;;;;;22.17;14.88;;;;;;;;;;5051142;28;20059;-62
2023/10/19 02:45:19;;;;;;;21.85;14.60;;;;;;;;;;5050699;28;20059;-62
2023/10/19 02:47:46;;;;;;;19.92;13.80;;;;;;;;;;5051014;28;20045;-62
2023/10/19 02:50:22;;;;;;;19.83;14.30;;;;;;;;;;5050990;28;20069;-62
2023/10/19 02:52:48;;;;;;;19.10;13.20;;;;;;;;;;5050281;28;20467;-62
2023/10/19 02:55:16;;;;;;;18.40;13.02;;;;;;;;;;5050425;28;20041;-62
2023/10/19 02:57:46;;;;;;;17.45;12.45;;;;;;;;;;5049953;28;20095;-62
2023/10/19 03:00:19;;;;;;;16.08;12.65;;;;;;;;;;5050278;28;20049;-62
2023/10/19 03:02:45;;;;;;;20.55;13.25;;;;;;;;;;5050691;28;20041;-62
2023/10/19 03:05:14;;;;;;;18.90;13.10;;;;;;;;;;5050030;28;20572;-62
2023/10/19 03:07:44;;;;;;;18.55;13.40;;;;;;;;;;5032431;28;20041;-62
2023/10/19 03:13:09;;;;;;;19.85;13.45;;;;;;;;;;5016324;28;20385;-62
2023/10/19 03:15:35;;;;;;;20.23;13.95;;;;;;;;;;5049882;28;20045;-62
2023/10/19 03:18:04;;;;;;;18.25;13.63;;;;;;;;;;5050231;28;20280;-62
2023/10/19 03:20:33;;;;;;;21.17;13.90;;;;;;;;;;5050318;28;20094;-62
2023/10/19 03:23:01;;;;;;;19.05;13.30;;;;;;;;;;5050020;28;20048;-62
2023/10/19 03:28:12;;;;;;;17.13;12.57;;;;;;;;;;5050227;28;20040;-62
2023/10/19 03:30:41;;;;;;;15.60;11.45;;;;;;;;;;5049391;28;20037;-62
2023/10/19 03:33:08;;;;;;;18.05;12.63;;;;;;;;;;5031938;28;20045;-62
2023/10/19 03:35:37;;;;;;;16.98;12.00;;;;;;;;;;5049752;28;20483;-62
2023/10/19 03:38:08;;;;;;;15.70;11.38;;;;;;;;;;5049725;28;20094;-62
2023/10/19 03:40:38;;;;;;;14.27;11.43;;;;;;;;;;5049932;28;20060;-62
2023/10/19 03:43:14;;;;;;;16.65;11.75;;;;;;;;;;5049975;28;20410;-62
2023/10/19 03:45:46;;;;;;;16.85;11.73;;;;;;;;;;5031215;28;20053;-62
2023/10/19 03:48:13;;;;;;;16.67;12.23;;;;;;;;;;5049943;28;20043;-62
2023/10/19 03:50:39;;;;;;;16.48;12.60;;;;;;;;;;5049765;28;20047;-62
2023/10/19 03:53:05;;;;;;;19.65;13.20;;;;;;;;;;5049325;28;20049;-62
2023/10/19 03:55:31;;;;;;;18.13;12.95;;;;;;;;;;5049724;28;20049;-62
2023/10/19 03:57:57;;;;;;;17.30;12.73;;;;;;;;;;5049674;28;20368;-62
2023/10/19 04:00:28;;;;;;;19.85;13.43;;;;;;;;;;5049363;28;20043;-62
2023/10/19 04:02:55;;;;;;;18.02;12.65;;;;;;;;;;5049739;28;20599;-62
2023/10/19 04:05:22;;;;;;;17.42;12.82;;;;;;;;;;5049578;28;20049;-62
2023/10/19 04:07:55;;;;;;;18.05;13.55;;;;;;;;;;5032672;28;20052;-62
2023/10/19 04:10:38;;;;;;;18.92;13.38;;;;;;;;;;5056344;28;20040;-62
2023/10/19 04:13:04;;;;;;;17.67;13.48;;;;;;;;;;5056289;28;20048;-62
2023/10/19 04:15:33;;;;;;;16.80;12.57;;;;;;;;;;5037745;28;20041;-62
2023/10/19 04:18:00;;;;;;;19.55;13.45;;;;;;;;;;5055823;28;20590;-62
2023/10/19 04:20:35;;;;;;;20.13;13.68;;;;;;;;;;5056203;28;20037;-62
2023/10/19 04:23:10;;;;;;;17.00;12.65;;;;;;;;;;5055882;28;20044;-62
2023/10/19 04:25:36;;;;;;;18.33;12.45;;;;;;;;;;5055883;28;20041;-62
2023/10/19 04:28:03;;;;;;;17.15;12.90;;;;;;;;;;5056146;28;20064;-62
2023/10/19 04:30:32;;;;;;;16.55;12.68;;;;;;;;;;5055783;28;20041;-62
2023/10/19 04:33:01;;;;;;;18.23;13.10;;;;;;;;;;5055863;28;20129;-62
2023/10/19 04:35:30;;;;;;;17.92;13.32;;;;;;;;;;5056004;28;20525;-62
2023/10/19 04:37:56;;;;;;;17.92;13.27;;;;;;;;;;5055651;28;20052;-62
2023/10/19 04:40:23;;;;;;;18.20;13.18;;;;;;;;;;5056067;28;20055;-62
2023/10/19 04:42:50;;;;;;;18.33;13.57;;;;;;;;;;5055968;28;20044;-62
2023/10/19 04:45:17;;;;;;;16.88;12.82;;;;;;;;;;5055528;28;20120;-62
2023/10/19 04:47:43;;;;;;;19.73;13.77;;;;;;;;;;5055916;28;20045;-62
2023/10/19 04:50:10;;;;;;;18.73;13.20;;;;;;;;;;5055929;28;20476;-62
2023/10/19 04:52:36;;;;;;;17.65;13.05;;;;;;;;;;5055270;28;20048;-62
2023/10/19 04:55:03;;;;;;;24.33;14.30;;;;;;;;;;5056031;28;20049;-62
2023/10/19 04:57:30;;;;;;;17.92;12.98;;;;;;;;;;5055726;28;20045;-62
2023/10/19 04:59:56;;;;;;;17.08;13.40;;;;;;;;;;5055492;28;20049;-62
2023/10/19 05:02:22;;;;;;;18.80;14.35;;;;;;;;;;5055786;28;20063;-62
2023/10/19 05:04:48;;;;;;;17.83;13.38;;;;;;;;;;5037461;28;20048;-62
2023/10/19 05:07:16;;;;;;;19.75;14.63;;;;;;;;;;5055333;28;20045;-62
2023/10/19 05:09:42;;;;;;;18.42;13.77;;;;;;;;;;5055701;28;20033;-62
2023/10/19 05:12:11;;;;;;;18.27;13.52;;;;;;;;;;5055422;28;20045;-62
2023/10/19 05:14:38;;;;;;;17.65;13.73;;;;;;;;;;5055325;28;20060;-62
2023/10/19 05:17:05;;;;;;;19.23;14.05;;;;;;;;;;5055459;28;20124;-62
2023/10/19 05:19:34;;;;;;;18.42;14.07;;;;;;;;;;5053425;28;20067;-62
2023/10/19 05:22:01;;;;;;;19.83;14.73;;;;;;;;;;5052161;28;20076;-62
2023/10/19 05:24:30;;;;;;;18.67;13.68;;;;;;;;;;5052099;28;20045;-62
2023/10/19 05:26:56;;;;;;;18.38;13.70;;;;;;;;;;5034365;28;20488;-62
2023/10/19 05:29:26;;;;;;;17.58;13.30;;;;;;;;;;5051937;28;20174;-62
2023/10/19 05:31:57;;;;;;;16.75;13.43;;;;;;;;;;5052007;28;20054;-62
2023/10/19 05:34:26;;;;;;;18.67;13.57;;;;;;;;;;5052295;28;20049;-62
2023/10/19 05:36:54;;;;;;;17.23;13.00;;;;;;;;;;5051396;28;20040;-62
2023/10/19 05:39:20;;;;;;;21.63;13.80;;;;;;;;;;5051706;28;20059;-62
2023/10/19 05:41:46;;;;;;;17.67;12.82;;;;;;;;;;5051927;28;20060;-62
2023/10/19 05:44:12;;;;;;;17.58;13.05;;;;;;;;;;5051668;28;20412;-62
2023/10/19 05:46:40;;;;;;;15.75;12.88;;;;;;;;;;5051885;28;20037;-62
2023/10/19 05:49:06;;;;;;;17.55;13.20;;;;;;;;;;5052072;28;20048;-62
2023/10/19 05:51:33;;;;;;;17.75;12.88;;;;;;;;;;5051563;28;20044;-62
2023/10/19 05:54:02;;;;;;;16.88;13.23;;;;;;;;;;5051362;28;20140;-62
2023/10/19 05:56:30;;;;;;;14.77;12.02;;;;;;;;;;5051584;28;20045;-62
2023/10/19 05:58:56;;;;;;;15.43;11.82;;;;;;;;;;5051367;28;20049;-62
2023/10/19 06:01:22;;;;;;;14.18;11.52;;;;;;;;;;5051927;28;20033;-62
2023/10/19 06:03:48;;;;;;;14.07;11.45;;;;;;;;;;5051593;28;20131;-62
2023/10/19 06:06:14;;;;;;;15.45;12.15;;;;;;;;;;5051188;28;20041;-62
2023/10/19 06:08:41;;;;;;;14.45;11.60;;;;;;;;;;5051699;28;20182;-62
2023/10/19 06:11:07;;;;;;;14.88;11.43;;;;;;;;;;5051664;28;20041;-62
2023/10/19 06:13:33;;;;;;;15.20;11.48;;;;;;;;;;5050866;28;20037;-62
2023/10/19 06:15:59;;;;;;;13.52;10.75;;;;;;;;;;5051500;28;20041;-62
2023/10/19 06:18:25;;;;;;;14.02;11.00;;;;;;;;;;5051191;28;20049;-62
2023/10/19 06:20:51;;;;;;;15.80;11.05;;;;;;;;;;5051002;28;20131;-62
2023/10/19 06:23:17;;;;;;;12.43;10.40;;;;;;;;;;5051061;28;20076;-62
2023/10/19 06:25:44;;;;;;;12.00;10.30;;;;;;;;;;5050855;28;20507;-62
2023/10/19 06:28:11;;;;;;;12.50;10.40;;;;;;;;;;5049601;28;20079;-61
2023/10/19 06:30:37;;;;;;;13.05;9.93;;;;;;;;;;5049755;28;20044;-60
2023/10/19 06:33:03;;;;;;;15.63;11.48;;;;;;;;;;5049285;28;20047;-62
2023/10/19 06:35:33;;;;;;;14.18;11.18;;;;;;;;;;5040454;28;20032;-63
2023/10/19 06:38:00;;;;;;;12.85;10.48;;;;;;;;;;5049410;28;20041;-62
2023/10/19 06:40:26;;;;;;;12.90;10.68;;;;;;;;;;5040365;28;20080;-62
2023/10/19 06:42:57;;;;;;;12.63;10.52;;;;;;;;;;5049663;28;20086;-61
2023/10/19 06:45:25;;;;;;;14.60;11.33;;;;;;;;;;5049480;28;20040;-61
2023/10/19 06:47:51;;;;;;;12.95;10.68;;;;;;;;;;5049780;28;20411;-62
2023/10/19 06:50:18;;;;;;;13.00;10.77;;;;;;;;;;5049971;28;20036;-62
2023/10/19 06:52:46;;;;;;;14.48;11.45;;;;;;;;;;5050404;28;20120;-62
2023/10/19 06:55:25;;;;;;;11.75;9.65;;;;;;;;;;5050414;28;20379;-62
2023/10/19 06:57:52;;;;;;;14.20;10.80;;;;;;;;;;5050017;28;20047;-63
2023/10/19 07:00:22;;;;;;;12.63;9.77;;;;;;;;;;5050742;28;20538;-62
2023/10/19 07:02:49;;;;;;;12.23;9.88;;;;;;;;;;5050799;28;20048;-63
2023/10/19 07:05:21;;;;;;;14.98;10.27;;;;;;;;;;5050022;28;20049;-63
2023/10/19 07:07:49;;;;;;;12.98;10.10;;;;;;;;;;5050152;28;20108;-63
2023/10/19 07:10:15;;;;;;;14.00;9.88;;;;;;;;;;5049377;28;20037;-63
2023/10/19 07:12:42;;;;;;;12.30;10.45;;;;;;;;;;5049950;28;20494;-63
2023/10/19 07:15:09;;;;;;;12.15;10.45;;;;;;;;;;5049752;28;20041;-63
2023/10/19 07:17:38;;;;;;;12.70;9.82;;;;;;;;;;5050331;28;20041;-63
2023/10/19 07:20:05;;;;;;;12.45;9.90;;;;;;;;;;5049667;28;20036;-63
2023/10/19 07:22:32;;;;;;;14.70;10.38;;;;;;;;;;5050230;28;20541;-63
2023/10/19 07:24:59;;;;;;;14.32;10.18;;;;;;;;;;5050099;28;20072;-63
2023/10/19 07:27:28;;;;;;;13.90;9.88;;;;;;;;;;5049376;28;20044;-62
2023/10/19 07:29:54;;;;;;;14.50;10.55;;;;;;;;;;5049974;28;20049;-62
2023/10/19 07:32:21;;;;;;;13.48;10.55;;;;;;;;;;5049052;28;20126;-62
2023/10/19 07:34:47;;;;;;;14.30;10.82;;;;;;;;;;5049723;28;20631;-63
2023/10/19 07:37:15;;;;;;;13.60;10.77;;;;;;;;;;5050345;28;20040;-62
2023/10/19 07:39:45;;;;;;;13.13;10.85;;;;;;;;;;5049340;28;20052;-62
2023/10/19 07:42:11;;;;;;;15.40;11.65;;;;;;;;;;5049458;28;20036;-62
2023/10/19 07:44:37;;;;;;;14.82;11.80;;;;;;;;;;5049706;28;20079;-62
2023/10/19 07:47:03;;;;;;;15.43;11.27;;;;;;;;;;5049513;28;20037;-64
2023/10/19 07:49:30;;;;;;;14.38;11.88;;;;;;;;;;5048762;28;20056;-62
2023/10/19 07:51:57;;;;;;;14.73;11.68;;;;;;;;;;5049582;28;20048;-62
2023/10/19 07:54:23;;;;;;;20.20;12.45;;;;;;;;;;5049813;28;20060;-62
2023/10/19 07:56:50;;;;;;;13.93;11.55;;;;;;;;;;5049775;28;20044;-62
2023/10/19 07:59:16;;;;;;;15.20;12.25;;;;;;;;;;5049649;28;20479;-62
2023/10/19 08:01:42;;;;;;;15.98;11.98;;;;;;;;;;5050222;28;20732;-62
2023/10/19 08:04:08;;;;;;;16.52;12.68;;;;;;;;;;5049446;28;20126;-62
2023/10/19 08:06:34;;;;;;;17.73;12.30;;;;;;;;;;5050120;28;20412;-62
2023/10/19 08:09:00;;;;;;;16.77;12.30;;;;;;;;;;5050094;28;20040;-62
2023/10/19 08:11:26;;;;;;;18.40;13.07;;;;;;;;;;5049678;28;20051;-61
2023/10/19 08:13:55;;;;;;;17.33;13.85;;;;;;;;;;5050148;28;20548;-62
2023/10/19 08:16:21;;;;;;;21.27;14.27;;;;;;;;;;5049735;28;20049;-62
2023/10/19 08:18:47;;;;;;;23.58;15.23;;;;;;;;;;5049228;28;20033;-61
2023/10/19 08:21:13;;;;;;;18.88;13.45;;;;;;;;;;5049849;28;20541;-62
2023/10/19 08:23:40;;;;;;;18.73;13.65;;;;;;;;;;5049435;28;20112;-61
2023/10/19 08:26:06;;;;;;;22.77;14.75;;;;;;;;;;5049424;28;20107;-62
2023/10/19 08:28:32;;;;;;;22.13;15.80;;;;;;;;;;5049614;28;20037;-62
2023/10/19 08:31:01;;;;;;;21.58;15.15;;;;;;;;;;5049524;28;20752;-62
2023/10/19 08:33:29;;;;;;;22.98;15.25;;;;;;;;;;5049673;28;20040;-62
2023/10/19 08:35:56;;;;;;;21.77;14.30;;;;;;;;;;5049731;28;20051;-61
2023/10/19 08:38:23;;;;;;;20.83;14.95;;;;;;;;;;5050175;28;20138;-61
2023/10/19 08:40:50;;;;;;;19.85;14.65;;;;;;;;;;5049256;28;20128;-61
2023/10/19 08:43:18;;;;;;;26.65;16.10;;;;;;;;;;5049708;28;20087;-61
2023/10/19 08:45:45;;;;;;;21.40;14.80;;;;;;;;;;5049758;28;20047;-61
2023/10/19 08:48:11;;;;;;;23.13;15.25;;;;;;;;;;5048538;28;20041;-61
2023/10/19 08:50:37;;;;;;;24.20;15.15;;;;;;;;;;5050026;28;20037;-61
2023/10/19 08:53:04;;;;;;;26.55;15.70;;;;;;;;;;5049338;28;20057;-61
2023/10/19 08:55:31;;;;;;;25.33;16.55;;;;;;;;;;5050563;28;20064;-62
2023/10/19 08:58:00;;;;;;;25.02;16.23;;;;;;;;;;5052572;28;20120;-62
2023/10/19 09:00:27;;;;;;;22.50;15.38;;;;;;;;;;5052416;28;20044;-62
2023/10/19 09:02:53;;;;;;;26.02;15.52;;;;;;;;;;5050236;28;20040;-62
2023/10/19 09:05:22;;;;;;;25.20;15.50;;;;;;;;;;5052296;28;20064;-62
2023/10/19 09:07:54;;;;;;;22.17;15.52;;;;;;;;;;5053177;28;20041;-63
2023/10/19 09:10:21;;;;;;;;;;;;;;;;;;5053324;28;20080;-63
2023/10/19 09:12:59;;;;;;;24.38;15.23;;;;;;;;;;5053200;28;20011;-63
2023/10/19 09:15:26;;;;;;;24.75;15.82;;;;;;;;;;5053157;28;20049;-65
2023/10/19 09:17:54;;;;;;;25.77;16.50;;;;;;;;;;5047346;28;20649;-62
2023/10/19 09:20:27;;;;;;;24.20;16.10;;;;;;;;;;5052807;28;20056;-62
2023/10/19 09:22:54;;;;;;;27.15;16.48;;;;;;;;;;5052439;28;20043;-62
2023/10/19 09:25:21;;;;;;;23.95;16.05;;;;;;;;;;5052276;28;20045;-63
2023/10/19 09:27:47;;;;;;;24.48;16.27;;;;;;;;;;5052258;28;20044;-63
2023/10/19 09:30:18;;;;;;;25.80;15.55;;;;;;;;;;5046180;28;20037;-63
2023/10/19 09:32:46;;;;;;;20.88;14.90;;;;;;;;;;5031386;28;20499;-63
2023/10/19 09:35:15;;;;;;;24.92;16.13;;;;;;;;;;5052227;28;20702;-63
2023/10/19 09:37:41;;;;;;;26.73;17.00;;;;;;;;;;5052717;28;20041;-63
2023/10/19 09:40:12;;;;;;;24.52;16.63;;;;;;;;;;5050334;28;20041;-64
2023/10/19 09:42:45;;;;;;;21.67;15.50;;;;;;;;;;5052703;28;20045;-65
2023/10/19 09:45:12;;;;;;;24.05;17.10;;;;;;;;;;5046261;28;20102;-64
2023/10/19 09:47:45;;;;;;;25.33;16.05;;;;;;;;;;5040924;28;20041;-64
2023/10/19 09:50:11;;;;;;;23.25;15.85;;;;;;;;;;5046259;28;20045;-63
2023/10/19 09:52:38;;;;;;;25.55;16.75;;;;;;;;;;5050902;28;20041;-63
2023/10/19 09:55:04;;;;;;;23.08;15.48;;;;;;;;;;5051599;28;20049;-63
2023/10/19 09:57:36;;;;;;;27.33;16.45;;;;;;;;;;5047669;28;20382;-63
2023/10/19 10:00:09;;;;;;;21.75;16.05;;;;;;;;;;5051130;28;20083;-61
2023/10/19 10:02:35;;;;;;;27.73;16.52;;;;;;;;;;5042191;28;20045;-63
2023/10/19 10:05:04;;;;;;;24.38;16.60;;;;;;;;;;5050379;28;20459;-63
2023/10/19 10:07:30;;;;;;;24.42;17.00;;;;;;;;;;5040090;28;20075;-63
2023/10/19 10:09:56;;;;;;;27.95;17.92;;;;;;;;;;5050902;28;20040;-63
2023/10/19 10:12:23;;;;;;;24.67;17.25;;;;;;;;;;5037860;28;20464;-65
2023/10/19 10:15:01;;;;;;;26.40;16.90;;;;;;;;;;5029033;28;20140;-65
2023/10/19 10:17:27;;;;;;;27.67;17.80;;;;;;;;;;5050742;28;20033;-65
2023/10/19 10:20:17;;;;;;;29.33;18.52;;;;;;;;;;5049371;28;20495;-65
2023/10/19 10:22:43;;;;;;;28.83;18.58;;;;;;;;;;5024104;28;20423;-65
2023/10/19 10:25:27;;;;;;;28.02;18.05;;;;;;;;;;5044713;28;20037;-64
2023/10/19 10:27:54;;;;;;;28.42;17.65;;;;;;;;;;5047721;28;20044;-65
2023/10/19 10:30:20;;;;;;;27.52;17.67;;;;;;;;;;5047683;28;20099;-69
2023/10/19 10:32:50;;;;;;;27.10;18.20;;;;;;;;;;5046841;28;20037;-66
2023/10/19 10:35:35;;;;;;;30.27;19.15;;;;;;;;;;5047935;28;20049;-63
2023/10/19 10:38:01;;;;;;;31.10;19.58;;;;;;;;;;5046816;28;20114;-63
2023/10/19 10:40:27;;;;;;;32.78;19.55;;;;;;;;;;5050347;28;20409;-64
2023/10/19 10:43:15;;;;;;;28.73;19.05;;;;;;;;;;5046978;28;20048;-63
2023/10/19 10:45:41;;;;;;;31.58;20.13;;;;;;;;;;5048083;28;20051;-62
2023/10/19 10:48:19;;;;;;;32.58;19.70;;;;;;;;;;5047619;28;20134;-63
2023/10/19 10:50:46;;;;;;;29.52;18.90;;;;;;;;;;5047646;28;20120;-62
2023/10/19 10:53:13;;;;;;;29.00;18.88;;;;;;;;;;5048403;28;20080;-65
2023/10/19 10:55:39;;;;;;;34.92;20.00;;;;;;;;;;5049605;28;20049;-63
2023/10/19 10:58:05;;;;;;;33.58;21.45;;;;;;;;;;5043439;28;20052;-64
2023/10/19 11:00:34;;;;;;;30.80;20.05;;;;;;;;;;5042853;28;20035;-63
2023/10/19 11:03:04;;;;;;;35.20;21.55;;;;;;;;;;5043319;28;20028;-64
2023/10/19 11:05:33;;;;;;;38.47;23.15;;;;;;;;;;5055169;28;20055;-64
2023/10/19 11:08:16;;;;;;;35.47;21.67;;;;;;;;;;5048808;28;20048;-63
2023/10/19 11:10:44;;;;;;;35.92;22.42;;;;;;;;;;5048213;28;20044;-64
2023/10/19 11:13:11;;;;;;;38.28;23.17;;;;;;;;;;5049226;28;20045;-64
2023/10/19 11:15:37;;;;;;;35.13;22.75;;;;;;;;;;5048069;28;20052;-64
2023/10/19 11:18:04;;;;;;;38.60;24.40;;;;;;;;;;5043293;28;20044;-64
2023/10/19 11:20:30;;;;;;;38.55;23.40;;;;;;;;;;5045286;28;20040;-64
2023/10/19 11:23:00;;;;;;;33.88;22.48;;;;;;;;;;5045382;28;20048;-63
2023/10/19 11:25:30;;;;;;;35.15;23.25;;;;;;;;;;5046436;28;20072;-63
2023/10/19 11:27:56;;;;;;;39.58;24.25;;;;;;;;;;5046830;28;20039;-64
2023/10/19 11:30:31;;;;;;;36.28;23.13;;;;;;;;;;5045450;28;20045;-64
2023/10/19 11:32:57;;;;;;;31.75;21.33;;;;;;;;;;5049871;28;20044;-64
2023/10/19 11:35:27;;;;;;;34.88;21.73;;;;;;;;;;5030795;28;20047;-64
2023/10/19 11:37:57;;;;;;;34.05;21.63;;;;;;;;;;5048057;28;20048;-65
2023/10/19 11:40:24;;;;;;;32.40;21.40;;;;;;;;;;5037701;28;20120;-63
2023/10/19 11:42:51;;;;;;;31.45;21.80;;;;;;;;;;5046998;28;20045;-64
2023/10/19 11:45:18;;;;;;;32.63;21.15;;;;;;;;;;5048567;28;20040;-64
2023/10/19 11:47:44;;;;;;;32.40;20.48;;;;;;;;;;5047145;28;20044;-64
2023/10/19 11:50:14;;;;;;;33.00;21.38;;;;;;;;;;5042042;28;20037;-64
2023/10/19 11:52:40;;;;;;;32.75;20.98;;;;;;;;;;5047423;28;20503;-64
2023/10/19 11:55:08;;;;;;;33.35;20.60;;;;;;;;;;5043124;28;20056;-63
2023/10/19 11:57:35;;;;;;;30.92;21.23;;;;;;;;;;5030462;28;20049;-63
2023/10/19 12:00:05;;;;;;;31.63;20.77;;;;;;;;;;5048214;28;20045;-64
2023/10/19 12:02:34;;;;;;;34.72;20.80;;;;;;;;;;5047114;28;20055;-63
2023/10/19 12:05:02;;;;;;;33.83;21.58;;;;;;;;;;5033989;28;20049;-64
2023/10/19 12:07:28;;;;;;;38.45;21.35;;;;;;;;;;5030444;28;20053;-64
2023/10/19 12:09:55;;;;;;;32.25;21.05;;;;;;;;;;5044665;28;20087;-64
2023/10/19 12:12:21;;;;;;;28.33;20.38;;;;;;;;;;5044982;28;20127;-65
2023/10/19 12:14:47;;;;;;;30.55;21.02;;;;;;;;;;5047711;28;20120;-65
2023/10/19 12:17:13;;;;;;;31.30;21.38;;;;;;;;;;5046883;28;20041;-65
2023/10/19 12:19:40;;;;;;;33.72;20.98;;;;;;;;;;5025220;28;20040;-65
2023/10/19 12:22:08;;;;;;;31.52;20.92;;;;;;;;;;5049875;28;20054;-64
2023/10/19 12:24:34;;;;;;;28.67;20.20;;;;;;;;;;5046895;28;20634;-65
2023/10/19 12:27:00;;;;;;;31.83;20.60;;;;;;;;;;5049573;28;20053;-65
2023/10/19 12:29:26;;;;;;;29.27;20.98;;;;;;;;;;5044693;28;20376;-65
2023/10/19 12:31:52;;;;;;;34.28;22.52;;;;;;;;;;5052473;28;20041;-64
2023/10/19 12:34:18;;;;;;;34.85;23.90;;;;;;;;;;5053647;28;20604;-64
2023/10/19 12:36:46;;;;;;;37.53;23.40;;;;;;;;;;5048020;28;20095;-64
2023/10/19 12:39:35;;;;;;;39.40;24.88;;;;;;;;;;5046211;28;20056;-65
2023/10/19 12:41:58;;;;;;;41.80;24.67;;;;;;;;;;5050108;28;20493;-64
2023/10/19 12:44:24;;;;;;;39.25;24.83;;;;;;;;;;5050929;28;21166;-65
2023/10/19 12:46:52;;;;;;;39.78;24.50;;;;;;;;;;5047474;28;20448;-65
2023/10/19 12:49:25;;;;;;;32.20;22.05;;;;;;;;;;5030798;28;20037;-64
2023/10/19 12:51:51;;;;;;;32.55;21.98;;;;;;;;;;5043711;28;20094;-64
2023/10/19 12:54:18;;;;;;;29.85;21.42;;;;;;;;;;5046485;28;20080;-63
2023/10/19 12:56:44;;;;;;;29.27;19.60;;;;;;;;;;5052968;28;20036;-64
2023/10/19 12:59:10;;;;;;;29.08;18.48;;;;;;;;;;5047681;28;20072;-65
2023/10/19 13:01:36;;;;;;;24.35;17.55;;;;;;;;;;5051106;28;20056;-65
2023/10/19 13:04:13;;;;;;;24.40;17.40;;;;;;;;;;5033186;28;20051;-65
2023/10/19 13:06:40;;;;;;;23.35;17.33;;;;;;;;;;5047506;28;20041;-64
2023/10/19 13:09:09;;;;;;;26.02;18.00;;;;;;;;;;5051725;28;20048;-63
2023/10/19 13:11:35;;;;;;;22.65;16.42;;;;;;;;;;5035585;28;20184;-64
2023/10/19 13:14:01;;;;;;;22.98;16.60;;;;;;;;;;5044481;28;20096;-63
2023/10/19 13:16:27;;;;;;;26.13;17.75;;;;;;;;;;5045514;28;20507;-65
2023/10/19 13:18:54;;;;;;;24.63;16.58;;;;;;;;;;5047107;28;20038;-63
2023/10/19 13:21:27;;;;;;;26.13;18.13;;;;;;;;;;5042867;28;20026;-64
2023/10/19 13:23:54;;;;;;;27.23;18.23;;;;;;;;;;5036193;28;20036;-62
2023/10/19 13:26:20;;;;;;;24.95;17.67;;;;;;;;;;5051983;28;20389;-64
2023/10/19 13:28:47;;;;;;;26.23;16.80;;;;;;;;;;5051524;28;20056;-64
2023/10/19 13:31:16;;;;;;;21.10;16.42;;;;;;;;;;5049438;28;20041;-63
2023/10/19 13:33:43;;;;;;;27.30;16.73;;;;;;;;;;5051490;28;20045;-65
2023/10/19 13:36:10;;;;;;;22.98;16.17;;;;;;;;;;5047736;28;20044;-64
2023/10/19 13:38:36;;;;;;;25.30;16.80;;;;;;;;;;5048402;28;20083;-65
2023/10/19 13:41:13;;;;;;;26.23;16.40;;;;;;;;;;5050253;28;20048;-64
2023/10/19 13:43:42;;;;;;;21.45;16.15;;;;;;;;;;5051219;28;20033;-64
2023/10/19 13:46:08;;;;;;;23.10;16.75;;;;;;;;;;5045589;28;20508;-64
2023/10/19 13:48:35;;;;;;;21.75;16.15;;;;;;;;;;5042770;28;20033;-63
2023/10/19 13:51:05;;;;;;;22.85;15.65;;;;;;;;;;5047908;28;20033;-65
2023/10/19 13:53:31;;;;;;;25.52;16.45;;;;;;;;;;5043479;28;20049;-64
2023/10/19 13:55:58;;;;;;;21.42;16.25;;;;;;;;;;5035362;28;20499;-64
2023/10/19 13:58:25;;;;;;;22.05;15.27;;;;;;;;;;5052141;28;20045;-64
2023/10/19 14:00:51;;;;;;;23.88;16.75;;;;;;;;;;5053059;28;20056;-64
2023/10/19 14:03:17;;;;;;;22.55;16.52;;;;;;;;;;5053326;28;20041;-64
2023/10/19 14:05:50;;;;;;;21.27;15.52;;;;;;;;;;5052836;28;20124;-64
2023/10/19 14:08:17;;;;;;;24.10;15.95;;;;;;;;;;5052263;28;20098;-64
2023/10/19 14:10:43;;;;;;;24.05;16.48;;;;;;;;;;5052420;28;20091;-65
2023/10/19 14:13:11;;;;;;;23.83;15.43;;;;;;;;;;5052027;28;20090;-64
2023/10/19 14:15:37;;;;;;;24.65;16.67;;;;;;;;;;5052667;28;20467;-64
2023/10/19 14:18:04;;;;;;;22.95;16.40;;;;;;;;;;5052366;28;20041;-64
2023/10/19 14:20:31;;;;;;;22.58;15.85;;;;;;;;;;5052237;28;20099;-64
2023/10/19 14:22:57;;;;;;;24.55;17.00;;;;;;;;;;5052477;28;20037;-64
2023/10/19 14:25:23;;;;;;;23.60;15.70;;;;;;;;;;5052147;28;20045;-64
2023/10/19 14:27:50;;;;;;;25.55;17.52;;;;;;;;;;5052331;28;20044;-64
2023/10/19 14:30:18;;;;;;;25.40;16.58;;;;;;;;;;5052211;28;20045;-64
2023/10/19 14:32:44;;;;;;;27.55;18.02;;;;;;;;;;5052428;28;20120;-64
2023/10/19 14:35:11;;;;;;;28.25;17.80;;;;;;;;;;5051961;28;20613;-64
2023/10/19 14:37:40;;;;;;;28.48;17.35;;;;;;;;;;5052669;28;20041;-64